Portada
METAR-TAF:

METAR-TAF

Aeropuertos :

Majuro, Islas Marshall

Aeropuerto Internacional Amata Kabua

latitud: 07-04N, longitud: 171-17E, altitud: 2 m

Observación

El informe se hizo hace 9 horas y 35 minutos, a las 23:52 UTC
Viento 13 kt del este
Temperatura 29°C
Humedad 79%
Presión 1009 hPa
Visibilidad: 24.1 km
Escasas nubes a una altura de 1500 ft
Nubes dispersas a una altura de 5000 ft
Cielo nuboso a una altura de 12000 ft
Cielo cubierto a una altura de 30000 ft

METAR: PKMJ 192352Z 09013KT 15SM FEW015 SCT050 BKN120 OVC300 29/25 A2981 RMK LAST

Hora: 21:27 (09:27 UTC)

Pronóstico

El informe se hizo hace 3 horas y 56 minutos, a las 05:31 UTC
Pronóstico válido del 20 a las 06 UTC al 21 a las 06 UTC
Viento 10 kt del este-sureste
Visibilidad: 10 km
Escasas nubes a una altura de 1500 ft
Nubes dispersas a una altura de 5000 ft

TAF: PKMJ 200531Z 2006/2106 12010KT P6SM FEW015 SCT050

Observaciones y pronósticos meteorológicos de más de 4000 aeropuertos (mensajes METAR y TAF).

Los puntos amarillos y rojos representan las estaciones disponibles.

Ponga el ratón en el punto deseado para ver el nombre de la estación.

Haga clic para ver las observaciones y los pronósticos meteorológicos.

Para cambiar el mapa : haga clic en los botones verdes con una cruz de color negro para hacer un zoom, en el botón verde con un guión para alejar o en las flechas verdes para mapas adyacentes.


METAR-TAF: